Time;durP1;ratioP1;P1;durP2;ratioP2;P2;SDS_P1;SDS_P2;PMS_P1;PMS_P2;Temp;Humidity;BMP_temperature;BMP_pressure;BME280_temperature;BME280_humidity;BME280_pressure;Samples;Min_cycle;Max_cycle;Signal;HPM_P1;HPM_P2
2022/07/14 00:04:55;;;;;;;5.15;3.30;;;18.00;50.20;;;;;;10357085;28;20359;-86
2022/07/14 00:10:17;;;;;;;4.10;3.25;;;17.90;69.70;;;;;;10342571;28;20194;-86
2022/07/14 00:15:39;;;;;;;5.10;3.40;;;17.80;82.70;;;;;;10317087;28;20229;-85
2022/07/14 00:21:00;;;;;;;3.55;2.83;;;17.80;95.50;;;;;;10317048;28;20193;-85
2022/07/14 00:26:22;;;;;;;7.53;2.80;;;17.70;99.90;;;;;;10315512;28;20316;-84
2022/07/14 00:31:43;;;;;;;2.78;2.45;;;17.70;99.90;;;;;;10331028;28;20194;-84
2022/07/14 00:37:05;;;;;;;4.03;2.65;;;17.60;99.90;;;;;;10345825;28;20233;-83
2022/07/14 00:42:40;;;;;;;5.43;2.70;;;17.60;99.90;;;;;;10355124;28;20594;-85
2022/07/14 00:48:01;;;;;;;2.63;2.20;;;17.50;99.90;;;;;;10354982;28;20202;-84
2022/07/14 00:53:23;;;;;;;3.58;2.63;;;17.50;99.90;;;;;;10356336;28;20252;-85
2022/07/14 00:58:45;;;;;;;7.78;2.72;;;17.50;99.90;;;;;;10383091;28;20198;-85
2022/07/14 01:04:06;;;;;;;3.55;2.20;;;17.40;99.90;;;;;;10314812;28;20277;-86
2022/07/14 01:09:28;;;;;;;3.42;2.30;;;17.30;99.90;;;;;;10327638;28;20519;-85
2022/07/14 01:14:51;;;;;;;5.07;2.22;;;17.30;99.90;;;;;;10354858;28;20205;-85
2022/07/14 01:20:15;;;;;;;6.88;2.40;;;17.20;99.90;;;;;;10357147;28;20203;-85
2022/07/14 01:25:36;;;;;;;8.77;2.20;;;17.20;99.90;;;;;;10368312;28;20224;-85
2022/07/14 01:30:58;;;;;;;5.78;2.33;;;17.10;99.90;;;;;;10334495;28;20197;-84
2022/07/14 01:36:20;;;;;;;4.63;2.65;;;17.00;99.90;;;;;;10334157;28;20232;-85
2022/07/14 01:41:41;;;;;;;8.02;2.75;;;16.90;99.90;;;;;;10317176;28;20496;-85
2022/07/14 01:47:03;;;;;;;6.63;2.67;;;16.90;99.90;;;;;;10308439;28;20418;-84
2022/07/14 01:52:25;;;;;;;7.63;2.95;;;16.90;99.90;;;;;;10346595;28;20235;-85
2022/07/14 01:57:47;;;;;;;4.45;2.53;;;16.80;99.90;;;;;;10347269;28;20196;-81
2022/07/14 02:03:10;;;;;;;6.47;2.67;;;16.80;99.90;;;;;;10322248;28;20204;-84
2022/07/14 02:08:31;;;;;;;6.50;2.60;;;16.70;99.90;;;;;;10367777;28;20200;-85
2022/07/14 02:13:53;;;;;;;9.85;2.63;;;16.60;99.90;;;;;;10377197;28;20203;-85
2022/07/14 02:19:15;;;;;;;9.70;2.70;;;16.60;99.90;;;;;;10361819;28;20382;-85
2022/07/14 02:24:37;;;;;;;12.23;2.30;;;16.60;94.30;;;;;;10360392;28;20411;-82
2022/07/14 02:29:59;;;;;;;5.35;2.05;;;16.50;93.50;;;;;;10359923;28;20228;-86
2022/07/14 02:35:20;;;;;;;6.18;2.20;;;16.40;88.60;;;;;;10359801;28;20220;-85
2022/07/14 02:40:42;;;;;;;11.20;2.70;;;16.30;91.60;;;;;;10360317;28;20199;-82
2022/07/14 02:46:04;;;;;;;5.60;1.85;;;16.30;76.00;;;;;;10359780;28;20227;-85
2022/07/14 02:51:26;;;;;;;6.60;2.05;;;16.30;58.70;;;;;;10345551;28;20200;-82
2022/07/14 02:56:47;;;;;;;6.35;2.05;;;16.20;37.20;;;;;;10383121;28;20282;-85
2022/07/14 03:02:09;;;;;;;7.55;2.15;;;16.10;14.90;;;;;;10341556;28;20269;-85
2022/07/14 03:07:32;;;;;;;7.35;1.60;;;16.10;2.00;;;;;;10335830;28;20235;-85
2022/07/14 03:12:54;;;;;;;13.45;1.95;;;16.00;1.00;;;;;;10354876;28;20247;-84
2022/07/14 03:18:17;;;;;;;9.55;2.15;;;15.90;1.00;;;;;;10359258;28;20216;-88
2022/07/14 03:23:40;;;;;;;6.53;1.73;;;16.00;1.00;;;;;;10344640;28;20229;-85
2022/07/14 03:29:07;;;;;;;8.90;1.95;;;16.00;1.00;;;;;;10335960;28;20233;-85
2022/07/14 03:34:29;;;;;;;8.18;1.83;;;15.80;1.00;;;;;;10332151;28;20502;-85
2022/07/14 03:39:52;;;;;;;4.65;1.48;;;15.80;1.00;;;;;;10374832;28;20263;-79
2022/07/14 03:45:14;;;;;;;10.88;1.85;;;15.80;1.00;;;;;;10371197;28;20431;-85
2022/07/14 03:50:36;;;;;;;11.02;2.05;;;15.90;1.00;;;;;;10357312;28;20290;-84
2022/07/14 03:55:58;;;;;;;7.70;1.98;;;15.90;1.00;;;;;;10357311;28;20200;-85
2022/07/14 04:01:23;;;;;;;6.22;1.38;;;15.90;1.00;;;;;;10330535;28;20222;-85
2022/07/14 04:06:47;;;;;;;5.38;1.98;;;15.90;1.00;;;;;;10316103;28;20225;-84
2022/07/14 04:12:10;;;;;;;3.85;1.73;;;15.90;1.00;;;;;;10326408;28;20232;-84
2022/07/14 04:17:32;;;;;;;8.60;1.60;;;15.90;1.00;;;;;;10356550;28;20197;-85
2022/07/14 04:22:53;;;;;;;8.30;2.20;;;15.90;1.00;;;;;;10356449;28;20496;-85
2022/07/14 04:28:16;;;;;;;6.30;1.48;;;16.00;1.00;;;;;;10348424;28;20466;-85
2022/07/14 04:33:39;;;;;;;7.65;1.60;;;16.00;1.00;;;;;;10336542;28;20433;-84
2022/07/14 04:39:05;;;;;;;9.50;2.00;;;16.00;1.00;;;;;;10355743;28;20379;-86
2022/07/14 04:44:29;;;;;;;5.32;1.42;;;16.00;1.00;;;;;;10335727;28;20261;-85
2022/07/14 04:55:36;;;;;;;4.72;1.33;;;16.10;1.00;;;;;;10365727;28;20287;-85
2022/07/14 05:01:18;;;;;;;9.13;1.50;;;16.10;1.00;;;;;;10333915;28;20230;-85
2022/07/14 05:06:40;;;;;;;6.78;1.63;;;16.10;1.00;;;;;;10300926;28;20315;-85
2022/07/14 05:12:03;;;;;;;7.30;1.50;;;16.10;1.00;;;;;;10352586;28;20201;-86
2022/07/14 05:17:26;;;;;;;6.38;1.52;;;16.10;1.00;;;;;;10340323;28;20204;-85
2022/07/14 05:22:54;;;;;;;9.02;1.48;;;16.20;1.00;;;;;;10354870;28;20275;-88
2022/07/14 05:28:16;;;;;;;3.90;1.17;;;16.30;1.00;;;;;;10339355;28;20453;-87
2022/07/14 05:33:48;;;;;;;9.07;1.88;;;16.40;1.00;;;;;;10315925;28;20197;-86
2022/07/14 05:39:09;;;;;;;9.75;1.52;;;16.50;1.00;;;;;;10334962;28;20201;-85
2022/07/14 05:44:31;;;;;;;6.97;1.05;;;16.60;1.00;;;;;;10340130;28;20229;-83
2022/07/14 05:49:54;;;;;;;4.70;1.73;;;16.60;1.00;;;;;;10354299;28;20191;-85
2022/07/14 05:55:16;;;;;;;6.95;2.13;;;16.70;1.00;;;;;;10353876;28;20554;-85
2022/07/14 06:00:39;;;;;;;6.07;1.20;;;16.90;99.90;;;;;;10366823;28;20282;-86
2022/07/14 06:06:03;;;;;;;8.95;1.00;;;17.00;99.90;;;;;;10367610;28;20228;-87
2022/07/14 06:11:25;;;;;;;12.00;1.27;;;17.10;99.90;;;;;;10349963;28;20221;-86
2022/07/14 06:16:47;;;;;;;4.43;1.02;;;17.10;1.60;;;;;;10339568;28;20621;-84
2022/07/14 06:22:09;;;;;;;4.38;1.13;;;17.20;1.00;;;;;;10354438;28;20293;-86
2022/07/14 06:27:31;;;;;;;3.63;1.15;;;17.30;1.00;;;;;;10342111;28;20539;-86
2022/07/14 06:32:53;;;;;;;7.82;1.50;;;17.50;1.00;;;;;;10374326;28;20512;-84
2022/07/14 06:38:15;;;;;;;7.13;1.40;;;17.70;1.00;;;;;;10346025;28;20209;-86
2022/07/14 06:43:38;;;;;;;7.07;1.25;;;18.10;99.90;;;;;;10373790;28;20376;-85
2022/07/14 06:49:01;;;;;;;5.57;1.65;;;18.60;1.00;;;;;;10373798;28;20204;-87
2022/07/14 06:54:23;;;;;;;4.85;1.27;;;19.40;99.90;;;;;;10349251;28;20193;-85
2022/07/14 06:59:45;;;;;;;7.53;1.48;;;19.20;1.00;;;;;;10364522;28;20241;-86
2022/07/14 07:10:48;;;;;;;4.78;1.30;;;20.30;1.00;;;;;;10358256;28;20221;-86
2022/07/14 07:16:09;;;;;;;2.78;0.85;;;20.90;1.00;;;;;;10357958;28;20201;-85
2022/07/14 07:21:31;;;;;;;4.55;0.90;;;20.70;99.90;;;;;;10344040;28;20244;-83
2022/07/14 07:26:53;;;;;;;3.80;0.95;;;20.20;99.90;;;;;;10350387;28;20373;-83
2022/07/14 07:32:14;;;;;;;5.70;1.27;;;20.70;99.90;;;;;;10353469;28;20204;-84
2022/07/14 07:37:37;;;;;;;5.60;1.33;;;20.80;99.90;;;;;;10350136;28;20273;-83
2022/07/14 07:42:58;;;;;;;6.53;1.13;;;20.70;99.90;;;;;;10351543;28;20543;-84
2022/07/14 07:48:20;;;;;;;3.35;1.25;;;19.90;99.90;;;;;;10338382;28;20227;-87
2022/07/14 07:53:43;;;;;;;2.10;0.90;;;19.90;99.90;;;;;;10335370;28;20271;-82
2022/07/14 07:59:05;;;;;;;4.50;1.42;;;20.40;99.90;;;;;;10332915;28;20248;-85
2022/07/14 08:04:27;;;;;;;3.63;1.00;;;21.60;1.00;;;;;;10338838;28;20296;-83
2022/07/14 08:09:49;;;;;;;9.90;1.20;;;21.70;1.00;;;;;;10305803;28;20210;-87
2022/07/14 08:15:15;;;;;;;7.25;1.40;;;22.30;1.00;;;;;;10350002;28;20510;-93
2022/07/14 08:20:36;;;;;;;1.73;0.70;;;22.10;1.00;;;;;;10335597;28;20210;-84
2022/07/14 08:25:58;;;;;;;9.10;1.30;;;21.60;1.00;;;;;;10310272;28;20313;-84
2022/07/14 08:31:19;;;;;;;3.30;0.90;;;22.20;1.00;;;;;;10302892;28;20213;-83
2022/07/14 08:36:41;;;;;;;4.40;1.17;;;22.00;1.00;;;;;;10286974;28;20262;-88
2022/07/14 08:42:03;;;;;;;2.97;0.98;;;22.00;1.00;;;;;;10270328;28;20223;-82
2022/07/14 08:47:25;;;;;;;4.15;1.38;;;21.40;1.00;;;;;;10283569;28;20520;-81
2022/07/14 08:52:48;;;;;;;3.75;1.13;;;21.10;1.00;;;;;;10295170;28;20289;-81
2022/07/14 08:58:10;;;;;;;2.38;0.90;;;22.20;1.00;;;;;;10322774;28;20199;-80
2022/07/14 09:03:32;;;;;;;2.58;1.10;;;22.00;1.00;;;;;;10320945;28;20210;-81
2022/07/14 09:09:28;;;;;;;3.30;1.00;;;21.30;1.00;;;;;;10318217;28;20203;-81
2022/07/14 09:20:36;;;;;;;13.75;2.25;;;23.00;99.90;;;;;;10287565;28;20269;-83
2022/07/14 09:26:11;;;;;;;2.47;0.98;;;22.30;99.90;;;;;;10296471;28;20480;-81
2022/07/14 09:31:33;;;;;;;3.47;1.52;;;21.70;99.90;;;;;;10282016;28;20533;-86
2022/07/14 09:37:13;;;;;;;15.43;1.17;;;21.50;99.90;;;;;;10285414;28;20426;-80
2022/07/14 09:42:48;;;;;;;4.97;1.10;;;22.00;99.90;;;;;;10284374;28;20287;-81
2022/07/14 09:48:14;;;;;;;13.23;9.45;;;21.60;99.90;;;;;;10269226;28;20253;-85
2022/07/14 09:53:37;;;;;;;3.70;1.27;;;22.50;99.90;;;;;;10289090;28;20214;-81
2022/07/14 09:58:59;;;;;;;6.22;1.00;;;23.30;99.90;;;;;;10294544;28;20202;-81
2022/07/14 10:04:21;;;;;;;2.40;0.90;;;23.10;99.90;;;;;;10327063;28;20199;-81
2022/07/14 10:09:59;;;;;;;6.25;0.95;;;23.30;99.90;;;;;;10306517;28;20218;-80
2022/07/14 10:15:23;;;;;;;8.40;1.20;;;23.90;99.90;;;;;;10328252;28;20222;-91
2022/07/14 10:20:47;;;;;;;12.65;1.13;;;23.60;99.90;;;;;;10291544;28;20206;-89
2022/07/14 10:26:10;;;;;;;18.83;1.67;;;23.10;99.90;;;;;;10312326;28;20596;-81
2022/07/14 10:31:40;;;;;;;12.23;2.38;;;23.00;99.90;;;;;;10276254;28;20231;-81
2022/07/14 10:37:35;;;;;;;12.75;1.50;;;22.80;99.90;;;;;;10296332;28;20702;-86
2022/07/14 10:43:07;;;;;;;7.43;0.90;;;23.20;99.90;;;;;;10272404;29;20203;-81
2022/07/14 10:48:34;;;;;;;12.10;1.52;;;22.60;99.90;;;;;;10243170;29;20481;-86
2022/07/14 10:54:25;;;;;;;4.38;0.95;;;23.20;99.90;;;;;;10218157;28;20239;-84
2022/07/14 11:00:05;;;;;;;4.68;0.90;;;23.40;99.90;;;;;;10261464;29;20207;-89
2022/07/14 11:05:27;;;;;;;3.83;1.08;;;23.00;99.90;;;;;;10257997;29;20243;-81
2022/07/14 11:10:49;;;;;;;7.28;1.10;;;22.30;99.90;;;;;;10267732;28;20282;-85
2022/07/14 11:16:10;;;;;;;4.25;0.80;;;21.90;99.90;;;;;;10275085;28;20269;-84
2022/07/14 11:21:35;;;;;;;2.22;0.68;;;22.70;99.90;;;;;;10299055;28;20211;-86
2022/07/14 11:27:17;;;;;;;2.80;0.70;;;22.60;99.90;;;;;;10304436;28;20238;-83
2022/07/14 11:32:38;;;;;;;5.38;0.88;;;23.10;99.90;;;;;;10314885;28;20393;-82
2022/07/14 11:38:21;;;;;;;3.80;0.98;;;23.10;99.90;;;;;;10297916;28;20214;-83
2022/07/14 11:43:45;;;;;;;3.47;0.88;;;23.00;99.90;;;;;;10315259;28;20233;-84
2022/07/14 11:49:07;;;;;;;3.05;1.00;;;22.20;99.90;;;;;;10310673;28;20253;-80
2022/07/14 11:54:28;;;;;;;10.15;1.73;;;22.60;99.90;;;;;;10329584;28;20606;-82
2022/07/14 11:59:50;;;;;;;3.95;1.00;;;22.80;99.90;;;;;;10294598;28;20242;-82
2022/07/14 12:05:11;;;;;;;10.32;1.73;;;22.30;99.90;;;;;;10285265;28;20485;-80
2022/07/14 12:10:35;;;;;;;6.15;1.10;;;22.40;99.90;;;;;;10274658;28;20246;-82
2022/07/14 12:16:02;;;;;;;8.18;1.25;;;22.60;99.90;;;;;;10300025;28;20203;-79
2022/07/14 12:21:34;;;;;;;3.72;1.67;;;22.80;99.90;;;;;;10286271;28;20275;-82
2022/07/14 12:27:01;;;;;;;11.68;0.98;;;23.10;99.90;;;;;;10298505;28;20273;-80
2022/07/14 12:32:26;;;;;;;3.20;1.02;;;23.10;99.90;;;;;;10308297;28;20206;-85
2022/07/14 12:37:51;;;;;;;4.60;1.10;;;23.10;99.90;;;;;;10282783;28;20568;-83
2022/07/14 12:43:38;;;;;;;7.13;0.90;;;23.20;99.90;;;;;;10311882;28;20230;-81
2022/07/14 12:49:04;;;;;;;3.35;0.65;;;23.30;99.90;;;;;;10269781;28;20294;-88
2022/07/14 12:54:33;;;;;;;12.10;1.90;;;23.40;99.90;;;;;;10327113;28;20222;-81
2022/07/14 13:00:17;;;;;;;8.18;1.00;;;23.10;99.90;;;;;;10257958;29;20274;-79
2022/07/14 13:05:56;;;;;;;28.70;1.92;;;22.70;99.90;;;;;;10299705;28;20281;-82
2022/07/14 13:11:18;;;;;;;5.22;0.93;;;22.80;99.90;;;;;;10296727;28;20206;-82
2022/07/14 13:16:49;;;;;;;3.90;1.00;;;22.70;99.90;;;;;;10294148;28;20198;-80
2022/07/14 13:22:10;;;;;;;3.97;0.73;;;22.40;99.90;;;;;;10311083;28;20217;-81
2022/07/14 13:27:32;;;;;;;6.90;1.55;;;22.30;99.90;;;;;;10301046;28;20910;-82
2022/07/14 13:32:54;;;;;;;2.78;0.85;;;22.30;99.90;;;;;;10298515;28;20190;-81
2022/07/14 13:38:15;;;;;;;1.90;0.85;;;22.50;99.90;;;;;;10313947;28;20206;-83
2022/07/14 13:43:37;;;;;;;3.83;0.68;;;22.50;99.90;;;;;;10315879;28;20495;-81
2022/07/14 13:48:58;;;;;;;7.85;0.60;;;22.30;99.90;;;;;;10316867;28;20296;-82
2022/07/14 13:54:21;;;;;;;8.65;0.60;;;22.20;99.90;;;;;;10317112;28;20204;-85
2022/07/14 13:59:43;;;;;;;2.83;1.10;;;22.30;99.90;;;;;;10279659;28;20297;-81
2022/07/14 14:05:07;;;;;;;3.95;1.73;;;22.30;99.90;;;;;;10302729;28;20211;-82
2022/07/14 14:10:29;;;;;;;3.58;1.00;;;22.30;99.90;;;;;;10314988;28;20211;-80
2022/07/14 14:15:57;;;;;;;3.72;1.13;;;22.00;99.90;;;;;;10297906;28;20188;-82
2022/07/14 14:21:18;;;;;;;8.27;0.88;;;22.00;99.90;;;;;;10323847;28;20210;-84
2022/07/14 14:26:40;;;;;;;5.00;0.70;;;22.20;99.90;;;;;;10314752;28;20230;-82
2022/07/14 14:32:01;;;;;;;4.60;1.50;;;22.30;99.90;;;;;;10314610;28;20217;-81
2022/07/14 14:37:23;;;;;;;4.13;1.48;;;22.70;99.90;;;;;;10330227;28;20234;-83
2022/07/14 14:42:45;;;;;;;8.70;0.80;;;22.70;99.90;;;;;;10321139;28;20559;-81
2022/07/14 14:48:08;;;;;;;1.13;0.70;;;22.50;99.90;;;;;;10283846;28;20233;-82
2022/07/14 14:53:30;;;;;;;5.50;1.00;;;22.20;99.90;;;;;;10293042;28;20196;-82
2022/07/14 14:58:51;;;;;;;318.20;17.73;;;22.10;99.90;;;;;;10326050;28;20210;-80
2022/07/14 15:04:13;;;;;;;2.15;0.85;;;21.90;99.90;;;;;;10314322;28;20194;-87
2022/07/14 15:09:35;;;;;;;5.55;0.98;;;21.50;99.90;;;;;;10315885;28;20226;-82
2022/07/14 15:14:56;;;;;;;1.50;0.70;;;21.30;99.90;;;;;;10317939;28;20229;-84
2022/07/14 15:20:18;;;;;;;3.90;0.80;;;21.20;99.90;;;;;;10317187;28;20430;-79
2022/07/14 15:25:39;;;;;;;2.03;0.90;;;21.10;99.90;;;;;;10326994;28;20218;-79
2022/07/14 15:31:01;;;;;;;1.95;0.73;;;21.20;99.90;;;;;;10328558;28;20647;-78
2022/07/14 15:36:32;;;;;;;1.98;0.70;;;21.30;99.90;;;;;;10330749;28;20204;-79
2022/07/14 15:41:53;;;;;;;19.10;1.25;;;21.10;99.90;;;;;;10316694;28;20199;-78
2022/07/14 15:47:15;;;;;;;1.27;0.70;;;20.90;99.90;;;;;;10332437;28;20244;-79
2022/07/14 15:52:37;;;;;;;5.55;1.08;;;20.70;99.90;;;;;;10332775;28;20274;-79
2022/07/14 15:57:58;;;;;;;2.65;0.75;;;20.70;99.90;;;;;;10305499;28;20195;-79
2022/07/14 16:03:20;;;;;;;3.28;0.77;;;20.70;99.90;;;;;;10305703;28;20198;-79
2022/07/14 16:08:41;;;;;;;1.20;0.70;;;20.70;99.90;;;;;;10315456;28;20473;-79
2022/07/14 16:14:03;;;;;;;5.30;1.10;;;20.50;99.90;;;;;;10315067;28;20277;-79
2022/07/14 16:19:24;;;;;;;2.55;0.80;;;20.40;99.90;;;;;;10316459;28;20186;-79
2022/07/14 16:24:46;;;;;;;7.57;1.30;;;20.30;99.90;;;;;;10276102;29;20489;-78
2022/07/14 16:30:09;;;;;;;25.13;1.58;;;20.10;99.90;;;;;;10261927;29;20245;-79
2022/07/14 16:35:31;;;;;;;7.85;1.33;;;19.90;99.90;;;;;;10305870;28;20419;-79
2022/07/14 16:40:53;;;;;;;2.03;0.60;;;19.90;99.90;;;;;;10328482;28;20204;-79
2022/07/14 16:46:21;;;;;;;2.58;0.80;;;19.70;99.90;;;;;;10328338;28;20344;-79
2022/07/14 16:51:49;;;;;;;4.03;0.85;;;19.50;99.90;;;;;;10315312;28;20191;-79
2022/07/14 16:57:10;;;;;;;1.90;0.70;;;19.50;99.90;;;;;;10328338;28;20202;-79
2022/07/14 17:02:31;;;;;;;3.78;0.70;;;19.50;99.90;;;;;;10315062;28;20186;-79
2022/07/14 17:07:54;;;;;;;1.75;1.13;;;19.50;99.90;;;;;;10313682;28;20284;-79
2022/07/14 17:13:15;;;;;;;4.47;1.05;;;19.40;99.90;;;;;;10327856;28;20213;-79
2022/07/14 17:18:37;;;;;;;1.80;0.90;;;19.30;1.00;;;;;;10327324;28;20194;-79
2022/07/14 17:24:00;;;;;;;1.42;0.60;;;19.20;1.00;;;;;;10314349;28;20194;-79
2022/07/14 17:29:22;;;;;;;4.70;1.20;;;19.10;1.00;;;;;;10310540;28;20234;-79
2022/07/14 17:34:43;;;;;;;2.97;1.08;;;19.00;1.00;;;;;;10287177;28;20197;-79
2022/07/14 17:40:05;;;;;;;1.40;0.80;;;18.90;1.00;;;;;;10289304;28;20258;-79
2022/07/14 17:45:28;;;;;;;3.78;1.17;;;18.80;10.70;;;;;;10273349;29;20430;-79
2022/07/14 17:50:50;;;;;;;7.45;1.45;;;18.80;99.90;;;;;;10274007;29;20198;-79
2022/07/14 17:56:12;;;;;;;3.00;0.80;;;18.70;99.90;;;;;;10294194;28;20372;-79
2022/07/14 18:01:34;;;;;;;3.05;0.98;;;18.80;99.90;;;;;;10329170;28;20484;-79
2022/07/14 18:06:56;;;;;;;3.38;1.02;;;18.70;99.90;;;;;;10317794;28;20218;-79
2022/07/14 18:12:17;;;;;;;4.18;1.10;;;18.50;99.90;;;;;;10305204;28;20207;-79
2022/07/14 18:17:39;;;;;;;4.05;1.10;;;18.50;1.00;;;;;;10328918;28;20203;-78
2022/07/14 18:23:00;;;;;;;2.70;1.10;;;18.40;1.00;;;;;;10314723;28;20476;-79
2022/07/14 18:28:21;;;;;;;3.35;0.85;;;18.30;1.00;;;;;;10333639;28;20245;-79
2022/07/14 18:33:43;;;;;;;6.57;0.80;;;18.20;53.90;;;;;;10321658;28;20242;-79
2022/07/14 18:39:04;;;;;;;3.47;0.95;;;18.20;99.90;;;;;;10297861;28;20230;-79
2022/07/14 18:46:13;;;;;;;4.35;1.00;;;18.20;99.90;;;;;;10295311;28;20250;-79
2022/07/14 18:50:08;;;;;;;4.05;1.10;;;18.10;1.00;;;;;;10294721;28;20237;-79
2022/07/14 18:55:30;;;;;;;4.97;1.15;;;18.00;1.00;;;;;;10311003;28;20195;-79
2022/07/14 19:00:52;;;;;;;4.40;1.10;;;17.90;99.90;;;;;;10292518;28;20195;-78
2022/07/14 19:06:14;;;;;;;2.53;1.23;;;17.90;1.00;;;;;;10279197;28;20227;-78
2022/07/14 19:11:37;;;;;;;3.15;0.98;;;17.80;1.00;;;;;;10316590;28;20211;-79
2022/07/14 19:16:58;;;;;;;3.13;1.20;;;17.90;99.90;;;;;;10318055;28;20198;-79
2022/07/14 19:22:19;;;;;;;3.88;1.00;;;17.80;1.00;;;;;;10317930;28;20194;-78
2022/07/14 19:27:41;;;;;;;3.40;1.38;;;17.80;1.00;;;;;;10310691;28;20600;-79
2022/07/14 19:33:03;;;;;;;2.58;0.95;;;17.70;1.00;;;;;;10279572;28;20201;-78
2022/07/14 19:38:27;;;;;;;2.28;0.98;;;17.80;1.00;;;;;;10278208;28;20492;-79
2022/07/14 19:43:48;;;;;;;2.58;1.30;;;17.70;99.90;;;;;;10293252;28;20221;-79
2022/07/14 19:49:09;;;;;;;3.63;1.58;;;17.70;1.00;;;;;;10292362;28;20314;-79
2022/07/14 19:54:31;;;;;;;3.58;1.42;;;17.70;1.00;;;;;;10300146;28;20197;-79
2022/07/14 19:59:52;;;;;;;3.40;1.08;;;17.60;99.90;;;;;;10370537;28;20213;-79
2022/07/14 20:05:28;;;;;;;6.75;1.55;;;17.60;1.00;;;;;;10368776;28;20200;-79
2022/07/14 20:10:50;;;;;;;4.55;1.58;;;17.50;48.50;;;;;;10324690;28;20265;-79
2022/07/14 20:16:14;;;;;;;3.30;1.20;;;17.50;1.00;;;;;;10307862;28;20254;-78
2022/07/14 20:21:38;;;;;;;3.53;1.20;;;17.40;99.90;;;;;;10292970;28;20209;-78
2022/07/14 20:26:59;;;;;;;3.10;1.33;;;17.30;1.00;;;;;;10330802;28;20401;-79
2022/07/14 20:38:02;;;;;;;2.95;1.33;;;17.10;1.00;;;;;;10314948;28;20210;-79
2022/07/14 20:43:26;;;;;;;2.65;1.40;;;17.00;1.00;;;;;;10328599;28;20205;-79
2022/07/14 20:48:47;;;;;;;1.98;1.30;;;16.90;21.90;;;;;;10274977;28;20246;-79
2022/07/14 20:54:09;;;;;;;8.57;3.15;;;16.80;1.00;;;;;;10278861;28;20198;-79
2022/07/14 20:59:32;;;;;;;7.78;4.55;;;16.70;1.00;;;;;;10370581;28;20211;-79
2022/07/14 21:04:53;;;;;;;8.52;4.15;;;16.60;1.00;;;;;;10356882;28;20740;-79
2022/07/14 21:10:16;;;;;;;11.15;2.90;;;16.60;16.30;;;;;;10342301;28;20228;-79
2022/07/14 21:15:37;;;;;;;9.75;2.65;;;16.60;99.90;;;;;;10289820;28;20487;-80
2022/07/14 21:20:59;;;;;;;7.30;2.15;;;16.40;99.90;;;;;;10286092;28;20203;-79
2022/07/14 21:26:21;;;;;;;7.00;2.75;;;16.40;99.90;;;;;;10313265;28;20237;-79
2022/07/14 21:31:44;;;;;;;6.75;2.38;;;16.30;99.90;;;;;;10313260;28;20209;-79
2022/07/14 21:37:06;;;;;;;7.65;2.55;;;16.20;99.90;;;;;;10329583;28;20449;-78
2022/07/14 21:42:28;;;;;;;6.18;2.72;;;16.20;99.90;;;;;;10313923;28;20203;-78
2022/07/14 21:47:50;;;;;;;5.00;1.50;;;16.20;99.90;;;;;;10315824;28;20244;-79
2022/07/14 21:53:12;;;;;;;10.80;1.83;;;16.10;1.00;;;;;;10314061;28;20198;-79
2022/07/14 21:58:34;;;;;;;8.18;1.70;;;16.10;1.00;;;;;;10369989;28;20498;-79
2022/07/14 22:03:56;;;;;;;3.97;1.40;;;16.00;1.00;;;;;;10362070;28;20219;-79
2022/07/14 22:09:18;;;;;;;3.08;1.40;;;16.00;1.00;;;;;;10346894;28;20240;-79
2022/07/14 22:14:40;;;;;;;3.40;1.50;;;15.90;1.00;;;;;;10318063;28;20197;-79
2022/07/14 22:20:03;;;;;;;5.32;1.40;;;15.90;1.00;;;;;;10320299;28;20253;-79
2022/07/14 22:25:24;;;;;;;6.47;1.38;;;15.90;1.00;;;;;;10336011;28;20439;-79
2022/07/14 22:30:45;;;;;;;3.72;1.35;;;15.90;1.00;;;;;;10322101;28;20248;-78
2022/07/14 22:36:10;;;;;;;3.00;1.23;;;15.80;1.00;;;;;;10333425;28;20304;-79
2022/07/14 22:41:31;;;;;;;6.93;1.42;;;15.70;1.00;;;;;;10319517;28;20193;-80
2022/07/14 22:46:52;;;;;;;1.90;1.10;;;15.60;1.00;;;;;;10335573;28;20313;-79
2022/07/14 22:52:14;;;;;;;2.72;0.82;;;15.40;14.00;;;;;;10320170;28;20200;-79
2022/07/14 22:57:36;;;;;;;5.07;1.05;;;15.20;68.80;;;;;;10362359;28;20356;-79
2022/07/14 23:02:58;;;;;;;2.63;0.98;;;15.10;99.90;;;;;;10375385;28;20199;-79
2022/07/14 23:08:19;;;;;;;1.58;1.05;;;15.10;99.90;;;;;;10369764;28;20271;-79
2022/07/14 23:13:41;;;;;;;2.70;1.15;;;15.10;99.90;;;;;;10304817;28;20385;-79
2022/07/14 23:19:02;;;;;;;3.15;1.15;;;15.00;99.90;;;;;;10313305;28;20198;-79
2022/07/14 23:24:24;;;;;;;2.47;0.98;;;15.00;99.90;;;;;;10332657;28;20200;-79
2022/07/14 23:29:46;;;;;;;2.85;1.10;;;;;;;;;;10333579;28;20247;-79
2022/07/14 23:35:11;;;;;;;3.08;0.95;;;14.90;99.90;;;;;;10318604;28;20191;-79
2022/07/14 23:40:33;;;;;;;1.52;0.80;;;14.90;99.90;;;;;;10307010;28;20192;-79
2022/07/14 23:45:54;;;;;;;1.40;0.73;;;14.80;99.90;;;;;;10291021;28;20226;-78
2022/07/14 23:51:15;;;;;;;4.32;1.00;;;14.80;99.90;;;;;;10263199;29;20304;-78
2022/07/14 23:56:37;;;;;;;2.40;1.00;;;14.80;99.90;;;;;;10320174;28;20408;-79
